Time;durP1;ratioP1;P1;durP2;ratioP2;P2;SDS_P1;SDS_P2;PMS_P1;PMS_P2;Temp;Humidity;BMP_temperature;BMP_pressure;BME280_temperature;BME280_humidity;BME280_pressure;Samples;Min_cycle;Max_cycle;Signal;HPM_P1;HPM_P2
2022/10/15 00:01:16;;;;;;;12.20;3.30;;;12.00;99.90;;;;;;5090440;28;20176;-62
2022/10/15 00:03:43;;;;;;;11.50;4.10;;;12.00;99.90;;;;;;5081451;28;20186;-63
2022/10/15 00:06:12;;;;;;;10.23;2.90;;;12.00;99.90;;;;;;5090463;28;20171;-63
2022/10/15 00:08:39;;;;;;;5.97;2.90;;;12.10;99.90;;;;;;5090428;28;20222;-63
2022/10/15 00:11:10;;;;;;;10.70;2.70;;;11.80;99.90;;;;;;5089946;28;20172;-64
2022/10/15 00:13:37;;;;;;;13.17;2.70;;;12.20;99.90;;;;;;5090694;28;20183;-63
2022/10/15 00:16:05;;;;;;;5.50;2.50;;;12.20;99.90;;;;;;5089284;28;20200;-64
2022/10/15 00:18:31;;;;;;;10.83;2.80;;;12.30;99.90;;;;;;5090027;28;20179;-63
2022/10/15 00:20:56;;;;;;;8.57;2.70;;;12.20;99.90;;;;;;5090412;28;20524;-63
2022/10/15 00:23:22;;;;;;;9.57;2.30;;;12.40;99.90;;;;;;5090567;28;20182;-63
2022/10/15 00:25:48;;;;;;;9.63;2.30;;;12.50;99.90;;;;;;5090702;28;20223;-63
2022/10/15 00:28:13;;;;;;;10.33;2.43;;;12.60;99.90;;;;;;5090506;28;20231;-63
2022/10/15 00:30:39;;;;;;;7.73;2.20;;;;;;;;;;5090616;28;20183;-63
2022/10/15 00:33:05;;;;;;;5.67;2.50;;;12.60;99.90;;;;;;5090021;28;20577;-63
2022/10/15 00:35:30;;;;;;;11.20;2.87;;;12.60;99.90;;;;;;5090697;28;20175;-63
2022/10/15 00:37:56;;;;;;;8.57;2.30;;;12.70;99.90;;;;;;5089893;28;20674;-63
2022/10/15 00:40:21;;;;;;;9.10;2.63;;;12.70;99.90;;;;;;5071333;28;20176;-64
2022/10/15 00:42:47;;;;;;;7.93;2.93;;;12.80;99.90;;;;;;5090191;28;20581;-63
2022/10/15 00:45:15;;;;;;;10.30;3.00;;;12.80;99.90;;;;;;5089717;28;20168;-64
2022/10/15 00:47:47;;;;;;;6.33;2.50;;;12.80;99.90;;;;;;5090215;28;20576;-64
2022/10/15 00:50:17;;;;;;;14.40;3.00;;;13.00;99.90;;;;;;5090610;28;20167;-64
2022/10/15 00:53:04;;;;;;;13.97;3.10;;;12.80;99.90;;;;;;5074210;28;20631;-64
2022/10/15 00:55:32;;;;;;;12.50;2.67;;;12.90;99.90;;;;;;5089987;28;20164;-62
2022/10/15 00:58:04;;;;;;;8.33;2.47;;;12.90;99.90;;;;;;5093899;28;20246;-62
2022/10/15 01:00:29;;;;;;;9.20;2.50;;;13.00;99.90;;;;;;5094057;28;20585;-62
2022/10/15 01:02:55;;;;;;;9.77;2.10;;;13.10;99.90;;;;;;5093571;28;20204;-61
2022/10/15 01:05:23;;;;;;;9.77;2.20;;;13.20;99.90;;;;;;5094056;28;20660;-61
2022/10/15 01:07:48;;;;;;;12.87;2.37;;;13.10;99.90;;;;;;5093687;28;20878;-61
2022/10/15 01:10:15;;;;;;;9.47;2.30;;;13.20;99.90;;;;;;5075323;28;20220;-61
2022/10/15 01:13:10;;;;;;;8.03;1.80;;;13.30;99.90;;;;;;5093529;28;20653;-61
2022/10/15 01:15:39;;;;;;;10.67;1.87;;;13.30;99.90;;;;;;5093514;28;20717;-61
2022/10/15 01:18:14;;;;;;;12.00;2.63;;;13.70;99.90;;;;;;5093357;28;20207;-61
2022/10/15 01:20:48;;;;;;;11.63;2.10;;;13.40;99.90;;;;;;5094029;28;20172;-60
2022/10/15 01:23:47;;;;;;;11.33;2.20;;;13.40;99.90;;;;;;5093233;28;20229;-60
2022/10/15 01:26:32;;;;;;;9.23;2.20;;;13.50;99.90;;;;;;5093567;28;20216;-60
2022/10/15 01:29:28;;;;;;;11.43;2.40;;;15.10;99.90;;;;;;5092883;28;20188;-60
2022/10/15 01:32:09;;;;;;;13.17;2.30;;;13.50;99.90;;;;;;5093622;28;20164;-61
2022/10/15 01:34:50;;;;;;;7.73;2.13;;;13.60;99.90;;;;;;5073596;28;20173;-60
2022/10/15 01:37:22;;;;;;;13.67;2.13;;;13.60;99.90;;;;;;5077599;28;20249;-60
2022/10/15 01:40:06;;;;;;;9.65;2.03;;;13.60;99.90;;;;;;5092406;28;20656;-60
2022/10/15 01:42:39;;;;;;;11.93;2.03;;;13.80;99.90;;;;;;5093412;28;20175;-60
2022/10/15 01:45:11;;;;;;;5.63;2.00;;;13.60;99.90;;;;;;5092918;28;20211;-60
2022/10/15 01:47:39;;;;;;;8.53;2.57;;;13.60;99.90;;;;;;5092309;28;20273;-61
2022/10/15 01:50:08;;;;;;;7.83;2.07;;;13.60;99.90;;;;;;5093493;28;20172;-60
2022/10/15 01:52:37;;;;;;;11.10;2.27;;;13.60;99.90;;;;;;5075148;28;20186;-60
2022/10/15 01:55:07;;;;;;;7.67;2.40;;;13.60;99.90;;;;;;5091694;28;20179;-61
2022/10/15 01:57:33;;;;;;;8.33;2.00;;;13.50;99.90;;;;;;5092750;28;20257;-61
2022/10/15 02:00:00;;;;;;;7.03;1.97;;;12.80;99.90;;;;;;5092758;28;20214;-61
2022/10/15 02:02:26;;;;;;;10.80;2.17;;;13.50;99.90;;;;;;5092984;28;20194;-61
2022/10/15 02:04:52;;;;;;;5.40;1.80;;;13.50;99.90;;;;;;5092997;28;20629;-62
2022/10/15 02:07:29;;;;;;;6.60;2.27;;;13.70;99.90;;;;;;5091420;28;20192;-62
2022/10/15 02:10:11;;;;;;;13.33;2.47;;;13.50;99.90;;;;;;5093225;28;20259;-62
2022/10/15 02:12:55;;;;;;;8.00;2.40;;;13.40;99.90;;;;;;5092271;28;20176;-62
2022/10/15 02:15:34;;;;;;;6.73;1.90;;;13.50;99.90;;;;;;5073352;28;20586;-61
2022/10/15 02:18:13;;;;;;;6.13;1.77;;;13.30;99.90;;;;;;5091432;28;20220;-61
2022/10/15 02:20:55;;;;;;;5.33;1.70;;;13.60;99.90;;;;;;5092325;28;20179;-62
2022/10/15 02:23:26;;;;;;;10.90;1.90;;;13.60;99.90;;;;;;5092136;28;20229;-62
2022/10/15 02:25:54;;;;;;;14.23;2.40;;;13.60;99.90;;;;;;5091740;28;20584;-62
2022/10/15 02:28:22;;;;;;;8.33;2.03;;;13.70;99.90;;;;;;5079652;28;20172;-62
2022/10/15 02:30:51;;;;;;;7.50;1.80;;;13.70;99.90;;;;;;5092906;28;20535;-62
2022/10/15 02:33:19;;;;;;;9.17;1.93;;;13.50;99.90;;;;;;5092283;28;20178;-62
2022/10/15 02:35:47;;;;;;;13.53;1.80;;;13.70;99.90;;;;;;5092422;28;20192;-62
2022/10/15 02:38:18;;;;;;;7.33;2.10;;;13.70;99.90;;;;;;5092128;28;20179;-63
2022/10/15 02:40:45;;;;;;;6.82;1.60;;;13.60;99.90;;;;;;5092421;28;20183;-62
2022/10/15 02:43:13;;;;;;;13.17;1.80;;;13.80;99.90;;;;;;5074101;28;20172;-63
2022/10/15 02:45:38;;;;;;;9.27;1.97;;;13.70;99.90;;;;;;5092090;28;20192;-62
2022/10/15 02:48:05;;;;;;;11.50;1.70;;;13.80;99.90;;;;;;5091615;28;20184;-62
2022/10/15 02:50:30;;;;;;;4.57;1.13;;;13.70;99.90;;;;;;5092067;28;20179;-62
2022/10/15 02:52:56;;;;;;;5.47;1.40;;;13.70;99.90;;;;;;5092122;28;20648;-62
2022/10/15 02:55:21;;;;;;;5.73;1.17;;;13.80;99.90;;;;;;5092126;28;20186;-63
2022/10/15 02:57:47;;;;;;;5.83;1.57;;;13.70;99.90;;;;;;5091853;28;20637;-62
2022/10/15 03:00:13;;;;;;;5.60;1.40;;;13.70;99.90;;;;;;5092205;28;20164;-63
2022/10/15 03:02:39;;;;;;;9.65;1.60;;;13.70;99.90;;;;;;5088304;28;20214;-62
2022/10/15 03:05:05;;;;;;;4.73;1.33;;;13.80;99.90;;;;;;5091491;28;20176;-62
2022/10/15 03:07:30;;;;;;;7.13;1.30;;;13.80;99.90;;;;;;5073422;28;20635;-63
2022/10/15 03:09:56;;;;;;;8.33;1.60;;;13.80;99.90;;;;;;5091297;28;20180;-63
2022/10/15 03:12:22;;;;;;;12.65;1.58;;;13.80;99.90;;;;;;5091566;28;20182;-63
2022/10/15 03:14:48;;;;;;;4.87;1.60;;;13.80;99.90;;;;;;5092066;28;20206;-63
2022/10/15 03:17:14;;;;;;;7.73;1.80;;;13.50;99.90;;;;;;5091634;28;20264;-63
2022/10/15 03:19:40;;;;;;;10.13;1.97;;;13.50;99.90;;;;;;5090565;28;20198;-61
2022/10/15 03:22:05;;;;;;;11.13;2.37;;;13.40;99.90;;;;;;5090951;28;20192;-61
2022/10/15 03:24:31;;;;;;;4.63;1.80;;;13.20;99.90;;;;;;5088993;28;20270;-60
2022/10/15 03:26:57;;;;;;;7.23;2.17;;;13.50;99.90;;;;;;5090555;28;20646;-61
2022/10/15 03:29:22;;;;;;;6.17;2.10;;;13.40;99.90;;;;;;5090706;28;20682;-61
2022/10/15 03:31:48;;;;;;;5.10;1.90;;;13.20;99.90;;;;;;5090774;28;20187;-60
2022/10/15 03:34:14;;;;;;;8.77;2.30;;;13.20;99.90;;;;;;5091450;28;20168;-63
2022/10/15 03:36:39;;;;;;;6.23;2.90;;;13.20;99.90;;;;;;5091402;28;20207;-64
2022/10/15 03:39:06;;;;;;;14.23;2.90;;;13.10;99.90;;;;;;5090052;28;20187;-63
2022/10/15 03:41:32;;;;;;;11.67;2.67;;;13.30;99.90;;;;;;5090915;28;20198;-62
2022/10/15 03:44:02;;;;;;;7.43;3.10;;;13.10;99.90;;;;;;5073149;28;20626;-62
2022/10/15 03:46:27;;;;;;;11.37;2.50;;;13.10;99.90;;;;;;5091245;28;20190;-61
2022/10/15 03:48:53;;;;;;;8.43;2.63;;;13.10;99.90;;;;;;5072557;28;20184;-61
2022/10/15 03:51:19;;;;;;;10.13;2.57;;;12.90;99.90;;;;;;5091069;28;20175;-61
2022/10/15 03:53:44;;;;;;;6.57;2.33;;;13.10;99.90;;;;;;5079728;28;20208;-61
2022/10/15 03:56:10;;;;;;;6.83;2.07;;;;;;;;;;5089131;28;20298;-60
2022/10/15 03:58:36;;;;;;;5.17;2.40;;;13.00;99.90;;;;;;5091032;28;20182;-60
2022/10/15 04:01:08;;;;;;;6.93;2.63;;;13.20;99.90;;;;;;5090946;28;20530;-61
2022/10/15 04:03:34;;;;;;;9.13;2.50;;;12.80;99.90;;;;;;5089967;28;20215;-61
2022/10/15 04:05:59;;;;;;;10.70;2.63;;;12.80;99.90;;;;;;5090528;28;20180;-61
2022/10/15 04:08:25;;;;;;;3.17;1.00;;;12.80;99.90;;;;;;5090987;28;20745;-60
2022/10/15 04:10:51;;;;;;;3.97;1.80;;;12.90;99.90;;;;;;5091163;28;20180;-60
2022/10/15 04:13:16;;;;;;;5.43;1.70;;;12.60;99.90;;;;;;5088346;28;20538;-61
2022/10/15 04:15:42;;;;;;;4.83;1.60;;;12.80;99.90;;;;;;5090577;28;20218;-60
2022/10/15 04:18:07;;;;;;;5.80;2.10;;;12.70;99.90;;;;;;5090677;28;20212;-60
2022/10/15 04:20:33;;;;;;;6.93;2.07;;;12.60;99.90;;;;;;5090934;28;20168;-60
2022/10/15 04:22:58;;;;;;;2.73;1.40;;;12.50;99.90;;;;;;5090134;28;20183;-60
2022/10/15 04:25:24;;;;;;;2.27;1.57;;;12.50;99.90;;;;;;5090797;28;20732;-60
2022/10/15 04:27:50;;;;;;;2.77;1.77;;;12.60;99.90;;;;;;5090607;28;20167;-60
2022/10/15 04:30:15;;;;;;;10.77;1.60;;;12.40;99.90;;;;;;5076037;28;20171;-61
2022/10/15 04:32:41;;;;;;;4.63;1.90;;;;;;;;;;5094617;28;20364;-60
2022/10/15 04:35:07;;;;;;;4.93;1.67;;;12.50;99.90;;;;;;5077130;28;20184;-60
2022/10/15 04:37:33;;;;;;;3.13;1.60;;;12.10;99.90;;;;;;5081933;28;20223;-60
2022/10/15 04:39:59;;;;;;;6.63;2.13;;;12.80;99.90;;;;;;5094428;28;20180;-60
2022/10/15 04:42:24;;;;;;;6.70;2.33;;;12.50;99.90;;;;;;5094547;28;20233;-60
2022/10/15 04:44:50;;;;;;;6.50;2.10;;;12.50;99.90;;;;;;5094826;28;20178;-60
2022/10/15 04:47:15;;;;;;;4.20;1.83;;;12.40;99.90;;;;;;5094237;28;20266;-60
2022/10/15 04:49:41;;;;;;;6.57;1.70;;;12.40;99.90;;;;;;5093934;28;20233;-60
2022/10/15 04:52:07;;;;;;;4.20;1.77;;;12.30;99.90;;;;;;5094492;28;20186;-60
2022/10/15 04:54:33;;;;;;;6.87;1.63;;;;;;;;;;5093800;28;20168;-62
2022/10/15 04:56:58;;;;;;;6.53;1.80;;;;;;;;;;5094392;28;20746;-60
2022/10/15 04:59:24;;;;;;;2.43;1.50;;;12.00;99.90;;;;;;5094108;28;20171;-61
2022/10/15 05:01:50;;;;;;;2.63;1.63;;;11.80;99.90;;;;;;5093189;28;20891;-60
2022/10/15 05:04:16;;;;;;;2.27;1.40;;;12.30;99.90;;;;;;5094013;28;20252;-61
2022/10/15 05:06:42;;;;;;;3.37;1.20;;;;;;;;;;5094132;28;20183;-61
2022/10/15 05:09:08;;;;;;;3.10;1.00;;;;;;;;;;5092646;28;20180;-61
2022/10/15 05:11:37;;;;;;;3.47;1.10;;;12.10;99.90;;;;;;5093913;28;20585;-61
2022/10/15 05:14:02;;;;;;;5.03;0.73;;;12.10;99.90;;;;;;5093149;28;20173;-61
2022/10/15 05:16:29;;;;;;;2.83;1.03;;;12.20;99.90;;;;;;5094420;28;20304;-60
2022/10/15 05:19:00;;;;;;;3.37;0.70;;;12.00;99.90;;;;;;5093820;28;20237;-60
2022/10/15 05:21:26;;;;;;;3.77;0.80;;;12.00;99.90;;;;;;5093275;28;20191;-60
2022/10/15 05:23:52;;;;;;;1.57;0.90;;;11.80;99.90;;;;;;5093821;28;20180;-60
2022/10/15 05:26:20;;;;;;;3.33;0.90;;;11.90;99.90;;;;;;5093093;28;20238;-60
2022/10/15 05:28:46;;;;;;;1.33;0.60;;;;;;;;;;5075374;28;20172;-61
2022/10/15 05:31:20;;;;;;;4.53;0.70;;;11.60;99.90;;;;;;5093116;28;20278;-60
2022/10/15 05:33:47;;;;;;;3.57;0.97;;;11.90;99.90;;;;;;5093145;28;20163;-60
2022/10/15 05:36:16;;;;;;;4.50;0.53;;;11.80;99.90;;;;;;5093774;28;20200;-60
2022/10/15 05:38:43;;;;;;;5.53;0.70;;;11.80;99.90;;;;;;5093675;28;20172;-60
2022/10/15 05:41:09;;;;;;;4.13;0.67;;;11.70;99.90;;;;;;5093076;28;20168;-60
2022/10/15 05:43:34;;;;;;;2.87;0.57;;;11.60;99.90;;;;;;5093100;28;20249;-60
2022/10/15 05:46:00;;;;;;;3.40;0.33;;;11.70;99.90;;;;;;5092827;28;20258;-60
2022/10/15 05:48:26;;;;;;;1.27;0.40;;;11.80;99.90;;;;;;5093377;28;20252;-60
2022/10/15 05:50:51;;;;;;;1.30;0.50;;;11.50;99.90;;;;;;5093544;28;20238;-60
2022/10/15 05:53:17;;;;;;;3.47;0.60;;;11.70;99.90;;;;;;5093125;28;20176;-60
2022/10/15 05:55:43;;;;;;;3.63;0.40;;;11.70;99.90;;;;;;5092946;28;20262;-62
2022/10/15 05:58:09;;;;;;;2.40;0.40;;;11.50;99.90;;;;;;5092457;28;20291;-60
2022/10/15 06:00:34;;;;;;;2.03;0.50;;;11.70;99.90;;;;;;5092653;28;20191;-60
2022/10/15 06:03:00;;;;;;;1.53;0.37;;;12.00;99.90;;;;;;5091004;28;20200;-60
2022/10/15 06:05:26;;;;;;;1.17;0.30;;;11.60;99.90;;;;;;5092980;28;20175;-61
2022/10/15 06:07:52;;;;;;;2.13;0.40;;;11.50;99.90;;;;;;5092923;28;20195;-61
2022/10/15 06:10:17;;;;;;;1.87;0.30;;;11.40;99.90;;;;;;5092679;28;20179;-61
2022/10/15 06:12:49;;;;;;;3.07;0.70;;;11.80;99.90;;;;;;5092104;28;20225;-61
2022/10/15 06:15:15;;;;;;;2.67;0.37;;;11.70;99.90;;;;;;5092683;28;20183;-62
2022/10/15 06:17:40;;;;;;;1.73;0.37;;;11.90;99.90;;;;;;5092262;28;20211;-61
2022/10/15 06:20:06;;;;;;;1.90;0.33;;;11.80;99.90;;;;;;5093081;28;20505;-61
2022/10/15 06:22:32;;;;;;;1.67;0.40;;;11.90;99.90;;;;;;5092486;28;20184;-61
2022/10/15 06:24:57;;;;;;;2.37;0.40;;;11.80;99.90;;;;;;5092753;28;20706;-62
2022/10/15 06:27:23;;;;;;;2.20;0.47;;;11.70;99.90;;;;;;5092362;28;20610;-61
2022/10/15 06:29:48;;;;;;;1.33;0.30;;;11.80;99.90;;;;;;5091724;28;20298;-60
2022/10/15 06:32:14;;;;;;;1.90;0.40;;;11.80;99.90;;;;;;5091889;28;20190;-60
2022/10/15 06:34:40;;;;;;;0.93;0.30;;;12.00;99.90;;;;;;5091710;28;20694;-60
2022/10/15 06:37:06;;;;;;;0.87;0.37;;;15.50;99.90;;;;;;5091571;28;20221;-60
2022/10/15 06:39:32;;;;;;;2.30;0.40;;;11.50;99.90;;;;;;5091356;28;20184;-60
2022/10/15 06:41:57;;;;;;;1.90;0.60;;;12.00;99.90;;;;;;5091675;28;20183;-63
2022/10/15 06:44:23;;;;;;;3.80;0.47;;;;;;;;;;5091589;28;20179;-60
2022/10/15 06:46:49;;;;;;;1.40;0.33;;;12.00;99.90;;;;;;5090815;28;20640;-60
2022/10/15 06:49:15;;;;;;;1.30;0.30;;;12.00;99.90;;;;;;5089813;28;20176;-60
2022/10/15 06:51:40;;;;;;;0.20;0.17;;;12.00;99.90;;;;;;5092130;28;20172;-60
2022/10/15 06:54:06;;;;;;;1.83;0.30;;;12.10;99.90;;;;;;5091605;28;20274;-59
2022/10/15 06:56:31;;;;;;;1.80;0.30;;;12.40;99.90;;;;;;5091151;28;20212;-60
2022/10/15 06:58:57;;;;;;;2.87;0.40;;;12.40;99.90;;;;;;5091202;28;20550;-59
2022/10/15 07:01:22;;;;;;;1.97;0.20;;;12.10;99.90;;;;;;5090102;28;20203;-67
2022/10/15 07:03:49;;;;;;;2.40;0.50;;;12.30;99.90;;;;;;5091418;28;20608;-65
2022/10/15 07:06:15;;;;;;;1.60;0.30;;;12.50;99.90;;;;;;5091608;28;20258;-65
2022/10/15 07:08:41;;;;;;;1.63;0.50;;;12.90;99.90;;;;;;5090187;28;20685;-65
2022/10/15 07:11:10;;;;;;;1.43;0.40;;;12.70;99.90;;;;;;5091493;28;20188;-65
2022/10/15 07:13:37;;;;;;;2.40;0.30;;;13.00;99.90;;;;;;5072489;28;20259;-65
2022/10/15 07:16:07;;;;;;;1.50;0.37;;;12.90;99.90;;;;;;5090896;28;20661;-66
2022/10/15 07:18:34;;;;;;;1.83;0.30;;;12.90;99.90;;;;;;5091638;28;20172;-66
2022/10/15 07:21:00;;;;;;;4.40;0.60;;;12.80;99.90;;;;;;5091004;28;20192;-66
2022/10/15 07:23:26;;;;;;;0.57;0.30;;;12.90;99.90;;;;;;5084782;28;20188;-66
2022/10/15 07:25:52;;;;;;;1.90;0.30;;;13.00;99.90;;;;;;5091428;28;20216;-66
2022/10/15 07:28:17;;;;;;;1.30;0.30;;;13.00;99.90;;;;;;5091056;28;20198;-65
2022/10/15 07:30:43;;;;;;;1.13;0.30;;;13.00;99.90;;;;;;5091677;28;20174;-65
2022/10/15 07:33:09;;;;;;;2.23;0.70;;;13.90;99.90;;;;;;5091767;28;20293;-62
2022/10/15 07:35:36;;;;;;;2.93;0.30;;;13.20;99.90;;;;;;5090519;28;20321;-62
2022/10/15 07:38:02;;;;;;;3.83;0.47;;;13.50;99.90;;;;;;5091182;28;20224;-63
2022/10/15 07:40:28;;;;;;;2.33;0.60;;;13.30;99.90;;;;;;5090919;28;20179;-63
2022/10/15 07:42:55;;;;;;;3.13;0.50;;;13.10;99.90;;;;;;5090094;28;20199;-63
2022/10/15 07:45:22;;;;;;;5.07;0.60;;;13.40;99.90;;;;;;5091239;28;20201;-62
2022/10/15 07:47:48;;;;;;;0.27;0.20;;;13.10;99.90;;;;;;5091057;28;20558;-62
2022/10/15 07:50:14;;;;;;;3.27;0.40;;;13.40;99.90;;;;;;5091429;28;20254;-61
2022/10/15 07:52:40;;;;;;;2.37;0.47;;;;;;;;;;5073115;28;20172;-62
2022/10/15 07:55:06;;;;;;;4.63;0.30;;;13.60;99.90;;;;;;5090908;28;20207;-62
2022/10/15 07:57:32;;;;;;;1.73;0.50;;;14.00;99.90;;;;;;5091180;28;20214;-63
2022/10/15 07:59:57;;;;;;;1.17;0.40;;;13.90;99.90;;;;;;5089006;28;20269;-62
2022/10/15 08:02:24;;;;;;;3.60;0.30;;;14.00;99.90;;;;;;5090537;28;20240;-61
2022/10/15 08:04:50;;;;;;;2.90;0.47;;;13.80;99.90;;;;;;5090933;28;20187;-58
2022/10/15 08:07:16;;;;;;;3.73;0.30;;;14.20;99.90;;;;;;5090314;28;20199;-59
2022/10/15 08:09:42;;;;;;;2.07;0.60;;;14.60;99.90;;;;;;5073005;28;20638;-60
2022/10/15 08:12:07;;;;;;;2.63;0.40;;;13.70;99.90;;;;;;5071958;28;20270;-60
2022/10/15 08:14:37;;;;;;;4.33;0.60;;;13.80;99.90;;;;;;5091002;28;20183;-60
2022/10/15 08:17:04;;;;;;;6.90;0.50;;;13.90;99.90;;;;;;5090888;28;20211;-63
2022/10/15 08:19:30;;;;;;;1.00;0.17;;;13.70;99.90;;;;;;5089936;28;20262;-58
2022/10/15 08:21:56;;;;;;;3.20;0.53;;;13.90;99.90;;;;;;5090403;28;20206;-61
2022/10/15 08:24:22;;;;;;;1.67;0.27;;;13.60;99.90;;;;;;5071200;28;20216;-60
2022/10/15 08:26:48;;;;;;;2.63;0.50;;;13.70;99.90;;;;;;5090972;28;20703;-59
2022/10/15 08:29:14;;;;;;;3.80;0.43;;;14.10;99.90;;;;;;5090550;28;20255;-60
2022/10/15 08:31:40;;;;;;;3.27;0.63;;;14.10;99.90;;;;;;5089177;28;20175;-60
2022/10/15 08:34:06;;;;;;;2.30;0.70;;;14.00;99.90;;;;;;5090705;28;20660;-59
2022/10/15 08:36:31;;;;;;;3.40;0.90;;;14.00;99.90;;;;;;5090606;28;20209;-60
2022/10/15 08:38:57;;;;;;;2.70;0.80;;;13.80;99.90;;;;;;5090217;28;20172;-60
2022/10/15 08:41:37;;;;;;;3.60;0.47;;;13.00;99.90;;;;;;5084685;28;20180;-60
2022/10/15 08:44:03;;;;;;;4.33;0.80;;;14.10;99.90;;;;;;5070459;28;20180;-60
2022/10/15 08:46:46;;;;;;;2.53;0.50;;;14.20;99.90;;;;;;5074048;28;20692;-60
2022/10/15 08:49:45;;;;;;;2.45;0.57;;;14.40;99.90;;;;;;5090391;28;20183;-60
2022/10/15 08:52:24;;;;;;;2.67;0.50;;;14.60;99.90;;;;;;5070335;28;20165;-60
2022/10/15 08:54:52;;;;;;;4.53;0.90;;;14.60;99.90;;;;;;5082872;28;20171;-60
2022/10/15 08:57:42;;;;;;;5.13;0.98;;;14.60;99.90;;;;;;5090353;28;20215;-60
2022/10/15 09:00:18;;;;;;;4.13;0.60;;;14.60;99.90;;;;;;5074488;28;20173;-60
2022/10/15 09:02:47;;;;;;;5.22;0.73;;;14.60;99.90;;;;;;5068741;28;20677;-60
2022/10/15 09:05:40;;;;;;;3.33;0.60;;;14.60;99.90;;;;;;5068593;28;20662;-61
2022/10/15 09:08:31;;;;;;;3.80;0.40;;;14.50;99.90;;;;;;5068516;28;20172;-60
2022/10/15 09:11:12;;;;;;;5.13;0.82;;;13.90;99.90;;;;;;5068542;28;20168;-61
2022/10/15 09:13:42;;;;;;;3.93;0.73;;;14.70;99.90;;;;;;5068486;28;20198;-60
2022/10/15 09:16:19;;;;;;;6.20;0.90;;;14.60;99.90;;;;;;5068481;28;20184;-60
2022/10/15 09:18:48;;;;;;;2.13;0.65;;;14.70;99.90;;;;;;5072522;28;20639;-60
2022/10/15 09:21:14;;;;;;;6.10;1.15;;;14.80;99.90;;;;;;5072585;28;20643;-60
2022/10/15 09:23:42;;;;;;;5.22;0.90;;;14.80;99.90;;;;;;5072673;28;20211;-60
2022/10/15 09:26:28;;;;;;;6.97;1.00;;;14.60;99.90;;;;;;5071911;28;20609;-60
2022/10/15 09:29:17;;;;;;;2.90;0.63;;;14.60;99.90;;;;;;5072553;28;20172;-60
2022/10/15 09:31:49;;;;;;;7.57;1.60;;;14.20;99.90;;;;;;5072447;28;20173;-60
2022/10/15 09:34:33;;;;;;;9.82;1.13;;;14.50;99.90;;;;;;5072301;28;20521;-60
2022/10/15 09:37:21;;;;;;;6.60;1.00;;;14.50;99.90;;;;;;5072459;28;20293;-60
2022/10/15 09:40:14;;;;;;;5.65;0.70;;;14.70;99.90;;;;;;5072467;28;20165;-60
2022/10/15 09:42:41;;;;;;;10.65;1.27;;;14.90;99.90;;;;;;5072107;28;20175;-60
2022/10/15 09:45:13;;;;;;;8.88;1.00;;;15.00;99.90;;;;;;5072175;28;20229;-61
2022/10/15 09:47:40;;;;;;;11.15;1.40;;;15.10;99.90;;;;;;5072159;28;20666;-60
2022/10/15 09:50:09;;;;;;;7.63;1.40;;;15.20;99.90;;;;;;5072116;28;20180;-61
2022/10/15 09:52:53;;;;;;;7.70;1.30;;;15.10;99.90;;;;;;5072246;28;20173;-61
2022/10/15 09:55:38;;;;;;;9.20;1.75;;;15.10;99.90;;;;;;5071996;28;20693;-61
2022/10/15 09:58:11;;;;;;;9.20;1.40;;;15.00;99.90;;;;;;5071852;28;20203;-60
2022/10/15 10:01:05;;;;;;;11.38;1.33;;;15.40;99.90;;;;;;5072056;28;20169;-60
2022/10/15 10:03:33;;;;;;;9.82;0.98;;;15.40;99.90;;;;;;5071993;28;20252;-60
2022/10/15 10:06:08;;;;;;;12.25;1.77;;;15.70;99.90;;;;;;5071838;28;20242;-60
2022/10/15 10:08:45;;;;;;;15.27;1.83;;;16.00;99.90;;;;;;5071892;28;20168;-60
2022/10/15 10:11:11;;;;;;;5.80;1.10;;;15.70;99.90;;;;;;5071698;28;20164;-60
2022/10/15 10:14:00;;;;;;;9.57;0.98;;;16.00;99.90;;;;;;5071905;28;20237;-60
2022/10/15 10:16:26;;;;;;;7.85;1.00;;;16.10;99.90;;;;;;5060032;28;20629;-61
2022/10/15 10:19:14;;;;;;;9.73;1.70;;;16.10;99.90;;;;;;5091795;28;20179;-60
2022/10/15 10:21:41;;;;;;;3.90;0.57;;;16.40;99.90;;;;;;5091928;28;20180;-60
2022/10/15 10:24:30;;;;;;;8.43;1.00;;;16.10;99.90;;;;;;5083622;28;166528;-60
2022/10/15 10:27:01;;;;;;;4.60;0.50;;;16.20;99.90;;;;;;5080271;28;20215;-61
2022/10/15 10:29:28;;;;;;;9.13;1.20;;;16.30;99.90;;;;;;5091842;28;20258;-60
2022/10/15 10:31:54;;;;;;;7.50;1.17;;;16.40;99.90;;;;;;5092812;28;20209;-61
2022/10/15 10:34:30;;;;;;;3.13;0.80;;;16.10;99.90;;;;;;5092502;28;20180;-61
2022/10/15 10:36:56;;;;;;;11.07;1.40;;;17.30;99.90;;;;;;5092679;28;20218;-60
2022/10/15 10:39:27;;;;;;;6.57;0.98;;;17.60;99.90;;;;;;5092664;28;20168;-61
2022/10/15 10:41:54;;;;;;;6.93;1.10;;;17.00;99.90;;;;;;5092550;28;20178;-59
2022/10/15 10:44:45;;;;;;;4.55;0.98;;;17.70;99.90;;;;;;5092594;28;20171;-59
2022/10/15 10:47:19;;;;;;;4.00;0.65;;;17.50;99.90;;;;;;5092540;28;20168;-58
2022/10/15 10:49:54;;;;;;;3.15;1.00;;;18.40;99.90;;;;;;5092166;28;20179;-60
2022/10/15 10:52:28;;;;;;;4.88;1.05;;;18.20;99.90;;;;;;5092290;28;20212;-59
2022/10/15 10:54:59;;;;;;;11.38;1.40;;;19.60;99.90;;;;;;5092271;28;20547;-59
2022/10/15 10:57:47;;;;;;;7.65;1.42;;;20.60;99.90;;;;;;5092159;28;20214;-59
2022/10/15 11:00:19;;;;;;;7.53;1.58;;;21.80;99.90;;;;;;5092045;28;20225;-58
2022/10/15 11:02:45;;;;;;;10.18;1.55;;;21.90;99.90;;;;;;5092208;28;20176;-59
2022/10/15 11:05:11;;;;;;;12.15;1.42;;;22.30;99.90;;;;;;5091992;28;20213;-60
2022/10/15 11:07:56;;;;;;;8.75;1.42;;;21.60;99.90;;;;;;5092190;28;20179;-60
2022/10/15 11:10:33;;;;;;;11.68;2.00;;;19.00;99.90;;;;;;5091857;28;20671;-60
2022/10/15 11:12:59;;;;;;;7.72;1.08;;;;;;;;;;5092087;28;20175;-59
2022/10/15 11:15:46;;;;;;;7.72;1.20;;;16.40;99.90;;;;;;5092081;28;20696;-59
2022/10/15 11:18:50;;;;;;;9.95;1.80;;;16.30;99.90;;;;;;5092045;28;20203;-59
2022/10/15 11:22:06;;;;;;;12.75;1.77;;;15.70;99.90;;;;;;5091687;28;20170;-60
2022/10/15 11:24:58;;;;;;;5.03;1.00;;;17.20;99.90;;;;;;5056996;28;20215;-59
2022/10/15 11:27:27;;;;;;;2.83;0.47;;;16.90;99.90;;;;;;5091539;28;20176;-59
2022/10/15 11:30:01;;;;;;;8.00;1.17;;;22.00;99.90;;;;;;5091537;28;20638;-59
2022/10/15 11:32:32;;;;;;;5.75;0.80;;;22.10;99.90;;;;;;5091599;28;20223;-59
2022/10/15 11:35:31;;;;;;;3.40;1.00;;;23.20;99.90;;;;;;5091409;28;20164;-59
2022/10/15 11:38:03;;;;;;;4.72;1.08;;;24.90;99.90;;;;;;5091273;28;20204;-59
2022/10/15 11:40:48;;;;;;;5.32;1.05;;;23.10;99.90;;;;;;5091018;28;20168;-59
2022/10/15 11:43:49;;;;;;;5.18;1.20;;;21.20;99.90;;;;;;5091224;28;20176;-59
2022/10/15 11:46:36;;;;;;;6.15;1.30;;;19.70;99.90;;;;;;5091168;28;20175;-58
2022/10/15 11:49:33;;;;;;;8.02;1.50;;;18.40;99.90;;;;;;5091354;28;20175;-59
2022/10/15 11:52:11;;;;;;;9.43;1.30;;;18.40;99.90;;;;;;5082546;28;20180;-59
2022/10/15 11:55:09;;;;;;;15.57;1.80;;;18.20;99.90;;;;;;5091371;28;20175;-59
2022/10/15 11:57:35;;;;;;;14.35;1.60;;;18.90;99.90;;;;;;5090915;28;20210;-59
2022/10/15 12:00:20;;;;;;;8.15;1.42;;;19.90;99.90;;;;;;5091129;28;20302;-59
2022/10/15 12:02:48;;;;;;;6.03;1.20;;;19.80;99.90;;;;;;5072740;28;20191;-59
2022/10/15 12:05:20;;;;;;;13.80;1.90;;;18.90;99.90;;;;;;5090995;28;20179;-59
2022/10/15 12:07:48;;;;;;;11.85;1.77;;;20.60;99.90;;;;;;5090929;28;20187;-59
2022/10/15 12:10:34;;;;;;;11.77;1.63;;;20.80;99.90;;;;;;5090877;28;20162;-59
2022/10/15 12:13:33;;;;;;;13.68;2.00;;;20.60;99.90;;;;;;5090823;28;20203;-59
2022/10/15 12:16:10;;;;;;;13.18;1.98;;;22.00;99.90;;;;;;5065997;28;20181;-59
2022/10/15 12:18:44;;;;;;;10.18;1.90;;;21.90;99.90;;;;;;5089761;28;20373;-60
2022/10/15 12:21:32;;;;;;;8.95;1.80;;;20.50;99.90;;;;;;5090586;28;20255;-59
2022/10/15 12:23:57;;;;;;;10.00;2.10;;;23.30;99.90;;;;;;5090468;28;20174;-59
2022/10/15 12:26:23;;;;;;;7.80;1.27;;;22.90;99.90;;;;;;5090470;28;20630;-59
2022/10/15 12:28:51;;;;;;;9.05;1.77;;;23.00;99.90;;;;;;5072524;28;20167;-59
2022/10/15 12:31:21;;;;;;;10.77;2.03;;;21.40;99.90;;;;;;5090462;28;20172;-58
2022/10/15 12:33:54;;;;;;;12.23;2.05;;;19.90;99.90;;;;;;5090208;28;20180;-58
2022/10/15 12:36:29;;;;;;;8.55;1.85;;;19.40;99.90;;;;;;5090067;28;20171;-58
2022/10/15 12:39:06;;;;;;;8.80;1.55;;;20.50;99.90;;;;;;5090374;28;20199;-58
2022/10/15 12:41:39;;;;;;;5.75;1.08;;;22.10;99.90;;;;;;5090306;28;20202;-59
2022/10/15 12:44:16;;;;;;;10.43;2.03;;;22.20;99.90;;;;;;5090354;28;20692;-59
2022/10/15 12:46:42;;;;;;;10.40;1.90;;;21.50;99.90;;;;;;5089752;28;20236;-59
2022/10/15 12:49:26;;;;;;;12.00;2.22;;;21.40;99.90;;;;;;5089850;28;20654;-59
2022/10/15 12:51:52;;;;;;;8.68;2.28;;;22.90;99.90;;;;;;5091959;28;20168;-59
2022/10/15 12:54:39;;;;;;;10.07;1.45;;;22.80;99.90;;;;;;5094328;28;20168;-59
2022/10/15 12:57:29;;;;;;;9.18;2.05;;;23.90;99.90;;;;;;5094315;28;20226;-59
2022/10/15 12:59:59;;;;;;;16.63;2.42;;;23.90;99.90;;;;;;5094169;28;20175;-62
2022/10/15 13:02:42;;;;;;;8.73;1.80;;;24.10;99.90;;;;;;5093861;28;20191;-60
2022/10/15 13:05:23;;;;;;;11.77;2.92;;;23.80;99.90;;;;;;5093949;28;20172;-64
2022/10/15 13:07:49;;;;;;;13.85;2.20;;;22.80;99.90;;;;;;5094252;28;20236;-59